createdAt,value
2019-05-22T00:01:24.764Z,94929.77
2019-05-22T00:04:14.952Z,94931.13
2019-05-22T00:06:43.883Z,94819.00
2019-05-22T00:09:18.975Z,94918.39
2019-05-22T00:11:48.563Z,94921.47
2019-05-22T00:14:16.241Z,94915.02
2019-05-22T00:16:46.369Z,94917.23
2019-05-22T00:19:14.637Z,94909.02
2019-05-22T00:21:42.379Z,94907.50
2019-05-22T00:24:12.084Z,94914.58
2019-05-22T00:26:41.319Z,94918.36
2019-05-22T00:29:10.032Z,94925.52
2019-05-22T00:31:39.688Z,94924.42
2019-05-22T00:34:09.663Z,94932.91
2019-05-22T00:36:37.452Z,94941.74
2019-05-22T00:39:06.307Z,94937.16
2019-05-22T00:41:34.695Z,94942.23
2019-05-22T00:44:04.627Z,94926.94
2019-05-22T00:46:33.573Z,94930.06
2019-05-22T00:49:01.909Z,94927.76
2019-05-22T00:51:47.625Z,94935.45
2019-05-22T00:54:34.630Z,94938.48
2019-05-22T00:57:24.623Z,94934.67
2019-05-22T00:59:54.900Z,94934.55
2019-05-22T01:02:26.354Z,94936.62
2019-05-22T01:04:54.269Z,94945.31
2019-05-22T01:07:29.717Z,94946.16
2019-05-22T01:09:58.100Z,94947.48
2019-05-22T01:12:28.821Z,94939.47
2019-05-22T01:15:03.398Z,94942.94
2019-05-22T01:17:35.976Z,94934.27
2019-05-22T01:20:06.226Z,94939.67
2019-05-22T01:22:35.742Z,94951.94
2019-05-22T01:25:05.396Z,94946.95
2019-05-22T01:27:35.538Z,94949.66
2019-05-22T01:30:06.639Z,94942.88
2019-05-22T01:32:44.875Z,94944.19
2019-05-22T01:35:13.560Z,94952.77
2019-05-22T01:37:43.929Z,94950.20
2019-05-22T01:40:19.739Z,94940.83
2019-05-22T01:42:51.471Z,94952.72
2019-05-22T01:45:21.392Z,94947.70
2019-05-22T01:47:59.410Z,94962.76
2019-05-22T01:50:54.938Z,94955.75
2019-05-22T01:53:26.780Z,94966.55
2019-05-22T01:55:59.062Z,94962.89
2019-05-22T01:58:30.084Z,94966.53
2019-05-22T02:00:58.421Z,94958.08
2019-05-22T02:03:29.223Z,94951.11
2019-05-22T02:05:57.529Z,94948.15
2019-05-22T02:08:27.579Z,94938.06
2019-05-22T02:10:57.501Z,94933.06
2019-05-22T02:13:30.431Z,94942.44
2019-05-22T02:16:00.074Z,94945.84
2019-05-22T02:18:28.902Z,94950.23
2019-05-22T02:20:57.364Z,94948.02
2019-05-22T02:23:24.778Z,94945.00
2019-05-22T02:25:52.215Z,94952.44
2019-05-22T02:28:22.287Z,94945.91
2019-05-22T02:30:49.703Z,94956.42
2019-05-22T02:33:21.236Z,94954.69
2019-05-22T02:35:48.784Z,94951.33
2019-05-22T02:38:16.316Z,94950.38
2019-05-22T02:40:45.388Z,94951.41
2019-05-22T02:43:15.344Z,94948.28
2019-05-22T02:45:44.215Z,94944.95
2019-05-22T02:48:14.056Z,94935.28
2019-05-22T02:50:42.142Z,94948.11
2019-05-22T02:53:12.552Z,94949.09
2019-05-22T02:55:40.635Z,94949.87
2019-05-22T02:58:10.484Z,94954.69
2019-05-22T03:00:57.686Z,94956.21
2019-05-22T03:03:26.315Z,94950.66
2019-05-22T03:05:54.569Z,94949.77
2019-05-22T03:08:25.076Z,94941.64
2019-05-22T03:10:54.786Z,94944.78
2019-05-22T03:13:44.557Z,94958.32
2019-05-22T03:16:13.487Z,94950.36
2019-05-22T03:18:43.834Z,94952.45
2019-05-22T03:21:11.739Z,94958.92
2019-05-22T03:23:39.869Z,94969.27
2019-05-22T03:26:09.845Z,94967.62
2019-05-22T03:28:38.672Z,94973.80
2019-05-22T03:31:08.370Z,94970.20
2019-05-22T03:33:36.230Z,94976.07
2019-05-22T03:36:10.018Z,94975.17
2019-05-22T03:38:39.831Z,94969.61
2019-05-22T03:41:08.849Z,94962.33
2019-05-22T03:43:36.348Z,94972.84
2019-05-22T03:46:24.736Z,94969.98
2019-05-22T03:48:52.974Z,94962.58
2019-05-22T03:51:20.635Z,94966.75
2019-05-22T03:53:49.489Z,94968.70
2019-05-22T03:56:17.675Z,94984.91
2019-05-22T03:58:45.491Z,94991.36
2019-05-22T04:01:14.195Z,94995.73
2019-05-22T04:03:43.782Z,95001.45
2019-05-22T04:06:14.051Z,94998.55
2019-05-22T04:08:41.630Z,95001.43
2019-05-22T04:11:10.928Z,94992.12
2019-05-22T04:13:38.508Z,94988.72
2019-05-22T04:16:08.946Z,94984.25
2019-05-22T04:18:37.982Z,94991.36
2019-05-22T04:21:05.707Z,94995.48
2019-05-22T04:23:33.505Z,94994.42
2019-05-22T04:26:03.376Z,94984.29
2019-05-22T04:28:30.936Z,94987.53
2019-05-22T04:31:00.233Z,94978.98
2019-05-22T04:33:29.175Z,94986.72
2019-05-22T04:35:58.937Z,94986.33
2019-05-22T04:38:26.695Z,94988.16
2019-05-22T04:40:57.486Z,94999.06
2019-05-22T04:43:31.994Z,94993.77
2019-05-22T04:46:00.391Z,94986.83
2019-05-22T04:48:30.936Z,94980.71
2019-05-22T04:51:33.411Z,94992.55
2019-05-22T04:54:01.078Z,95000.35
2019-05-22T04:56:29.299Z,94996.59
2019-05-22T04:59:00.266Z,94992.87
2019-05-22T05:01:28.125Z,94994.45
2019-05-22T05:03:56.903Z,94987.64
2019-05-22T05:06:26.219Z,94987.70
2019-05-22T05:08:55.934Z,94972.60
2019-05-22T05:11:24.114Z,94973.20
2019-05-22T05:13:51.673Z,94978.92
2019-05-22T05:16:19.537Z,94969.95
2019-05-22T05:18:47.318Z,94969.92
2019-05-22T05:21:14.910Z,94973.82
2019-05-22T05:23:42.500Z,94969.34
2019-05-22T05:26:10.031Z,94981.02
2019-05-22T05:28:38.153Z,94979.12
2019-05-22T05:31:05.615Z,94982.31
2019-05-22T05:33:40.531Z,94983.95
2019-05-22T05:36:10.370Z,94982.76
2019-05-22T05:38:38.968Z,94980.02
2019-05-22T05:41:06.754Z,94991.84
2019-05-22T05:43:34.903Z,94985.13
2019-05-22T05:46:02.447Z,94982.88
2019-05-22T05:48:32.375Z,94989.71
2019-05-22T05:51:42.465Z,94984.41
2019-05-22T05:54:13.555Z,94992.09
2019-05-22T05:56:42.820Z,95001.95
2019-05-22T05:59:11.831Z,95003.18
2019-05-22T06:01:58.279Z,95006.06
2019-05-22T06:04:38.616Z,95016.37
2019-05-22T06:07:22.770Z,95011.30
2019-05-22T06:10:23.456Z,95014.45
2019-05-22T06:12:51.387Z,95011.84
2019-05-22T06:15:21.161Z,95011.86
2019-05-22T06:18:31.333Z,95022.23
2019-05-22T06:21:03.923Z,95021.03
2019-05-22T06:24:07.589Z,95018.77
2019-05-22T06:26:57.151Z,95026.61
2019-05-22T06:29:29.320Z,95020.00
2019-05-22T06:32:43.071Z,95026.52
2019-05-22T06:35:12.149Z,95024.75
2019-05-22T06:37:48.893Z,95019.95
2019-05-22T06:40:18.027Z,95008.86
2019-05-22T06:43:03.027Z,95014.00
2019-05-22T06:45:30.491Z,95011.32
2019-05-22T06:47:57.960Z,95015.14
2019-05-22T06:50:25.681Z,95018.19
2019-05-22T06:53:08.965Z,95028.54
2019-05-22T06:55:23.124Z,95025.47
2019-05-22T06:57:50.684Z,95024.50
2019-05-22T07:00:22.299Z,95024.97
2019-05-22T07:02:49.879Z,95020.83
2019-05-22T07:05:17.789Z,95007.14
2019-05-22T07:07:45.937Z,95002.06
2019-05-22T07:10:13.993Z,94993.77
2019-05-22T07:12:43.507Z,94999.61
2019-05-22T07:15:25.103Z,94995.40
2019-05-22T07:17:54.376Z,94987.18
2019-05-22T07:20:23.575Z,94975.59
2019-05-22T07:22:52.532Z,94977.99
2019-05-22T07:25:21.802Z,94974.06
2019-05-22T07:27:49.545Z,94978.34
2019-05-22T07:30:17.315Z,94975.91
2019-05-22T07:32:45.430Z,94968.66
2019-05-22T07:35:12.995Z,94960.65
2019-05-22T07:37:43.568Z,94966.02
2019-05-22T07:40:11.843Z,94964.27
2019-05-22T07:42:39.376Z,94970.83
2019-05-22T07:45:07.431Z,94963.41
2019-05-22T07:47:36.306Z,94965.34
2019-05-22T07:50:04.193Z,94955.08
2019-05-22T07:52:32.020Z,94959.25
2019-05-22T07:54:59.588Z,94962.63
2019-05-22T07:57:27.162Z,94964.27
2019-05-22T07:59:55.108Z,94966.05
2019-05-22T08:02:24.655Z,94966.98
2019-05-22T08:04:52.838Z,94964.29
2019-05-22T08:07:23.505Z,94964.27
2019-05-22T08:09:51.329Z,94960.62
2019-05-22T08:12:19.883Z,94960.11
2019-05-22T08:14:48.825Z,94960.42
2019-05-22T08:17:17.273Z,94955.75
2019-05-22T08:19:44.740Z,94958.80
2019-05-22T08:22:12.782Z,94959.80
2019-05-22T08:24:40.783Z,94957.67
2019-05-22T08:27:08.790Z,94947.86
2019-05-22T08:29:36.881Z,94956.99
2019-05-22T08:32:05.296Z,94956.45
2019-05-22T08:34:32.998Z,94960.80
2019-05-22T08:37:02.700Z,94961.99
2019-05-22T08:39:30.362Z,94953.24
2019-05-22T08:41:57.998Z,94959.80
2019-05-22T08:44:26.914Z,94956.29
2019-05-22T08:46:55.551Z,94954.38
2019-05-22T08:49:24.301Z,94956.50
2019-05-22T08:51:52.089Z,94949.49
2019-05-22T08:54:20.250Z,94955.94
2019-05-22T08:56:50.863Z,94954.05
2019-05-22T08:59:20.314Z,94947.96
2019-05-22T09:01:48.810Z,94951.59
2019-05-22T09:04:16.295Z,94951.44
2019-05-22T09:06:43.863Z,94958.00
2019-05-22T09:09:11.458Z,94958.19
2019-05-22T09:11:39.008Z,94956.61
2019-05-22T09:14:06.470Z,94955.11
2019-05-22T09:16:33.997Z,94955.11
2019-05-22T09:19:01.931Z,94953.31
2019-05-22T09:21:30.124Z,94942.39
2019-05-22T09:23:59.385Z,94946.22
2019-05-22T09:26:26.933Z,94931.75
2019-05-22T09:28:54.487Z,94939.81
2019-05-22T09:31:22.069Z,94938.48
2019-05-22T09:33:49.763Z,94932.84
2019-05-22T09:36:17.690Z,94924.98
2019-05-22T09:38:45.571Z,94929.33
2019-05-22T09:41:13.017Z,94924.95
2019-05-22T09:43:40.562Z,94917.73
2019-05-22T09:46:09.393Z,94927.69
2019-05-22T09:48:37.807Z,94933.30
2019-05-22T09:51:05.703Z,94930.52
2019-05-22T09:53:34.345Z,94931.69
2019-05-22T09:56:01.835Z,94922.25
2019-05-22T09:58:29.542Z,94927.45
2019-05-22T10:00:57.076Z,94926.08
2019-05-22T10:03:24.839Z,94913.33
2019-05-22T10:05:52.453Z,94912.00
2019-05-22T10:08:20.473Z,94916.99
2019-05-22T10:10:48.339Z,94929.66
2019-05-22T10:13:16.116Z,94926.03
2019-05-22T10:15:44.495Z,94921.81
2019-05-22T10:18:12.238Z,94911.85
2019-05-22T10:20:41.307Z,94905.50
2019-05-22T10:23:15.676Z,94909.56
2019-05-22T10:25:38.708Z,94912.42
2019-05-22T10:28:07.374Z,94911.30
2019-05-22T10:30:35.582Z,94908.87
2019-05-22T10:33:03.482Z,94913.77
2019-05-22T10:35:32.912Z,94909.44
2019-05-22T10:38:00.856Z,94918.46
2019-05-22T10:40:28.506Z,94917.11
2019-05-22T10:42:56.849Z,94924.70
2019-05-22T10:45:24.655Z,94915.30
2019-05-22T10:47:52.574Z,94920.52
2019-05-22T10:50:20.950Z,94909.03
2019-05-22T10:52:53.961Z,94909.81
2019-05-22T10:55:22.184Z,94897.97
2019-05-22T10:57:49.831Z,94906.33
2019-05-22T11:00:19.496Z,94903.39
2019-05-22T11:02:47.350Z,94900.44
2019-05-22T11:05:16.108Z,94897.06
2019-05-22T11:07:44.167Z,94894.89
2019-05-22T11:10:13.237Z,94894.09
2019-05-22T11:12:40.823Z,94893.80
2019-05-22T11:15:08.739Z,94902.98
2019-05-22T11:17:37.293Z,94904.31
2019-05-22T11:20:05.960Z,94894.03
2019-05-22T11:22:35.171Z,94887.11
2019-05-22T11:25:03.969Z,94873.73
2019-05-22T11:27:31.609Z,94868.78
2019-05-22T11:29:59.060Z,94872.17
2019-05-22T11:32:26.617Z,94870.86
2019-05-22T11:34:54.046Z,94864.47
2019-05-22T11:37:21.787Z,94859.71
2019-05-22T11:39:49.718Z,94875.88
2019-05-22T11:42:18.186Z,94870.20
2019-05-22T11:44:45.768Z,94864.63
2019-05-22T11:47:14.611Z,94857.07
2019-05-22T11:49:42.429Z,94857.08
2019-05-22T11:52:11.768Z,94866.42
2019-05-22T11:54:39.451Z,94861.80
2019-05-22T11:57:07.477Z,94860.95
2019-05-22T11:59:36.310Z,94861.40
2019-05-22T12:02:04.982Z,94863.76
2019-05-22T12:04:47.366Z,94853.72
2019-05-22T12:07:04.927Z,94869.67
2019-05-22T12:09:32.858Z,94848.59
2019-05-22T12:12:00.846Z,94837.06
2019-05-22T12:14:30.022Z,94842.20
2019-05-22T12:16:58.695Z,94838.95
2019-05-22T12:19:26.693Z,94846.36
2019-05-22T12:21:54.830Z,94842.68
2019-05-22T12:24:28.458Z,94833.23
2019-05-22T12:26:52.478Z,94840.50
2019-05-22T12:29:20.256Z,94827.50
2019-05-22T12:31:47.853Z,94834.98
2019-05-22T12:34:15.384Z,94835.91
2019-05-22T12:36:43.429Z,94836.67
2019-05-22T12:39:11.893Z,94824.61
2019-05-22T12:41:40.191Z,94821.12
2019-05-22T12:44:09.392Z,94816.12
2019-05-22T12:46:37.967Z,94816.15
2019-05-22T12:49:08.960Z,94816.15
2019-05-22T12:51:37.471Z,94816.08
2019-05-22T12:54:05.001Z,94807.44
2019-05-22T12:56:33.566Z,94797.52
2019-05-22T12:59:02.410Z,94805.63
2019-05-22T13:01:30.876Z,94796.34
2019-05-22T13:03:58.668Z,94797.64
2019-05-22T13:06:26.644Z,94792.98
2019-05-22T13:08:54.108Z,94793.66
2019-05-22T13:11:22.018Z,94795.04
2019-05-22T13:13:49.930Z,94801.61
2019-05-22T13:16:17.406Z,94801.76
2019-05-22T13:18:45.367Z,94777.27
2019-05-22T13:21:18.279Z,94797.63
2019-05-22T13:23:47.422Z,94798.22
2019-05-22T13:26:16.528Z,94801.22
2019-05-22T13:28:46.969Z,94805.23
2019-05-22T13:31:15.324Z,94799.55
2019-05-22T13:33:44.150Z,94804.13
2019-05-22T13:36:12.429Z,94798.10
2019-05-22T13:38:40.272Z,94802.28
2019-05-22T13:41:08.267Z,94797.64
2019-05-22T13:43:36.449Z,94797.04
2019-05-22T13:46:05.011Z,94784.08
2019-05-22T13:48:32.958Z,94777.59
2019-05-22T13:51:01.426Z,94780.14
2019-05-22T13:53:29.423Z,94772.40
2019-05-22T13:55:57.995Z,94765.80
2019-05-22T13:58:26.640Z,94762.34
2019-05-22T14:00:54.865Z,94767.81
2019-05-22T14:03:23.423Z,94762.70
2019-05-22T14:05:51.814Z,94759.72
2019-05-22T14:08:20.179Z,94753.69
2019-05-22T14:10:49.915Z,94754.39
2019-05-22T14:13:18.320Z,94754.39
2019-05-22T14:15:52.568Z,94757.89
2019-05-22T14:18:15.470Z,94745.86
2019-05-22T14:20:43.025Z,94738.40
2019-05-22T14:23:11.072Z,94737.38
2019-05-22T14:25:38.734Z,94735.14
2019-05-22T14:28:08.172Z,94727.33
2019-05-22T14:30:36.484Z,94733.67
2019-05-22T14:33:05.502Z,94732.11
2019-05-22T14:35:47.538Z,94734.78
2019-05-22T14:38:08.545Z,94731.39
2019-05-22T14:40:37.609Z,94736.28
2019-05-22T14:43:05.368Z,94736.39
2019-05-22T14:45:33.505Z,94724.09
2019-05-22T14:48:00.932Z,94730.08
2019-05-22T14:50:32.820Z,94715.97
2019-05-22T14:53:00.258Z,94720.94
2019-05-22T14:55:29.148Z,94717.08
2019-05-22T14:57:57.102Z,94715.80
2019-05-22T15:00:28.983Z,94708.92
2019-05-22T15:02:58.751Z,94704.81
2019-05-22T15:05:26.447Z,94714.94
2019-05-22T15:07:54.018Z,94711.30
2019-05-22T15:10:23.750Z,94713.65
2019-05-22T15:12:51.373Z,94708.00
2019-05-22T15:15:22.344Z,94697.80
2019-05-22T15:17:50.157Z,94697.20
2019-05-22T15:20:23.126Z,94696.31
2019-05-22T15:22:50.849Z,94693.66
2019-05-22T15:25:18.918Z,94691.50
2019-05-22T15:27:46.543Z,94691.98
2019-05-22T15:30:14.779Z,94685.02
2019-05-22T15:32:42.955Z,94684.55
2019-05-22T15:35:11.854Z,94678.43
2019-05-22T15:37:41.559Z,94682.30
2019-05-22T15:40:10.287Z,94683.39
2019-05-22T15:42:40.068Z,94668.08
2019-05-22T15:45:10.210Z,94666.66
2019-05-22T15:47:53.503Z,94674.69
2019-05-22T15:50:11.399Z,94682.55
2019-05-22T15:52:40.873Z,94693.03
2019-05-22T15:55:11.618Z,94699.57
2019-05-22T15:57:41.036Z,94697.28
2019-05-22T16:00:15.389Z,94685.73
2019-05-22T16:02:45.806Z,94690.00
2019-05-22T16:05:16.454Z,94683.80
2019-05-22T16:07:44.459Z,94682.98
2019-05-22T16:10:12.845Z,94684.71
2019-05-22T16:12:40.813Z,94688.19
2019-05-22T16:15:10.355Z,94690.78
2019-05-22T16:17:41.655Z,94687.67
2019-05-22T16:20:11.651Z,94681.53
2019-05-22T16:22:39.147Z,94684.95
2019-05-22T16:25:07.387Z,94685.34
2019-05-22T16:27:35.547Z,94689.82
2019-05-22T16:30:03.752Z,94697.19
2019-05-22T16:32:33.811Z,94703.03
2019-05-22T16:35:03.650Z,94714.37
2019-05-22T16:37:31.735Z,94720.10
2019-05-22T16:39:59.424Z,94714.81
2019-05-22T16:42:28.016Z,94714.69
2019-05-22T16:44:55.853Z,94726.92
2019-05-22T16:47:23.736Z,94731.88
2019-05-22T16:49:51.497Z,94733.63
2019-05-22T16:52:19.466Z,94739.66
2019-05-22T16:54:48.126Z,94738.14
2019-05-22T16:57:16.944Z,94739.31
2019-05-22T16:59:46.692Z,94748.94
2019-05-22T17:02:17.360Z,94745.61
2019-05-22T17:04:46.130Z,94745.17
2019-05-22T17:07:15.137Z,94747.66
2019-05-22T17:09:43.132Z,94755.36
2019-05-22T17:12:12.605Z,94764.54
2019-05-22T17:14:40.759Z,94772.34
2019-05-22T17:17:11.318Z,94783.14
2019-05-22T17:19:39.250Z,94778.57
2019-05-22T17:22:08.163Z,94765.31
2019-05-22T17:24:36.600Z,94763.14
2019-05-22T17:27:06.484Z,94766.55
2019-05-22T17:29:34.732Z,94764.21
2019-05-22T17:32:03.679Z,94763.11
2019-05-22T17:34:32.529Z,94770.94
2019-05-22T17:37:05.970Z,94759.86
2019-05-22T17:39:36.271Z,94769.59
2019-05-22T17:42:06.338Z,94773.56
2019-05-22T17:44:35.793Z,94772.95
2019-05-22T17:47:06.286Z,94764.95
2019-05-22T17:49:33.639Z,94774.91
2019-05-22T17:52:01.707Z,94769.70
2019-05-22T17:54:29.411Z,94777.05
2019-05-22T17:56:57.372Z,94766.25
2019-05-22T17:59:25.368Z,94766.84
2019-05-22T18:01:53.343Z,94775.14
2019-05-22T18:04:21.497Z,94771.94
2019-05-22T18:06:49.039Z,94774.55
2019-05-22T18:09:16.767Z,94779.71
2019-05-22T18:11:44.649Z,94784.28
2019-05-22T18:14:12.509Z,94790.58
2019-05-22T18:16:40.566Z,94796.31
2019-05-22T18:19:09.527Z,94798.06
2019-05-22T18:21:37.969Z,94804.12
2019-05-22T18:24:05.636Z,94805.95
2019-05-22T18:26:33.380Z,94812.34
2019-05-22T18:29:01.165Z,94830.55
2019-05-22T18:31:28.827Z,94844.02
2019-05-22T18:33:56.323Z,94852.83
2019-05-22T18:36:23.999Z,94859.97
2019-05-22T18:38:51.569Z,94870.17
2019-05-22T18:41:18.987Z,94870.33
2019-05-22T18:43:46.485Z,94876.81
2019-05-22T18:46:14.047Z,94857.80
2019-05-22T18:48:41.906Z,94854.70
2019-05-22T18:51:10.475Z,94843.78
2019-05-22T18:53:38.533Z,94846.45
2019-05-22T18:56:10.748Z,94840.27
2019-05-22T18:58:38.451Z,94839.09
2019-05-22T19:01:07.016Z,94820.68
2019-05-22T19:03:34.810Z,94827.05
2019-05-22T19:06:03.513Z,94843.05
2019-05-22T19:08:31.567Z,94859.15
2019-05-22T19:10:59.034Z,94869.39
2019-05-22T19:13:26.536Z,94850.81
2019-05-22T19:15:54.475Z,94862.50
2019-05-22T19:18:22.151Z,94855.56
2019-05-22T19:20:49.811Z,94852.82
2019-05-22T19:23:17.469Z,94872.25
2019-05-22T19:25:44.864Z,94872.00
2019-05-22T19:28:12.379Z,94887.14
2019-05-22T19:30:39.830Z,94893.39
2019-05-22T19:33:07.620Z,94896.24
2019-05-22T19:35:35.276Z,94890.84
2019-05-22T19:38:03.404Z,94891.20
2019-05-22T19:40:31.424Z,94893.80
2019-05-22T19:42:58.884Z,94897.22
2019-05-22T19:45:30.600Z,94901.14
2019-05-22T19:47:57.233Z,94914.78
2019-05-22T19:50:25.096Z,94915.55
2019-05-22T19:52:53.919Z,94902.91
2019-05-22T19:55:22.720Z,94879.43
2019-05-22T19:57:51.053Z,94876.61
2019-05-22T20:00:19.255Z,94864.81
2019-05-22T20:02:50.575Z,94864.34
2019-05-22T20:05:18.226Z,94853.27
2019-05-22T20:07:45.656Z,94861.02
2019-05-22T20:10:13.792Z,94868.01
2019-05-22T20:12:43.199Z,94870.01
2019-05-22T20:15:11.768Z,94863.93
2019-05-22T20:17:39.543Z,94857.73
2019-05-22T20:20:08.049Z,94856.88
2019-05-22T20:22:37.913Z,94855.75
2019-05-22T20:25:06.484Z,94858.13
2019-05-22T20:27:37.674Z,94858.67
2019-05-22T20:30:06.245Z,94861.66
2019-05-22T20:32:33.824Z,94869.34
2019-05-22T20:35:01.387Z,94865.03
2019-05-22T20:37:32.359Z,94861.59
2019-05-22T20:40:00.475Z,94851.95
2019-05-22T20:42:28.634Z,94860.27
2019-05-22T20:44:57.232Z,94865.14
2019-05-22T20:47:26.443Z,94870.40
2019-05-22T20:49:54.796Z,94864.30
2019-05-22T20:52:24.354Z,94858.20
2019-05-22T20:54:52.141Z,94867.31
2019-05-22T20:57:20.825Z,94867.00
2019-05-22T20:59:48.920Z,94876.89
2019-05-22T21:02:17.059Z,94869.83
2019-05-22T21:04:45.747Z,94873.72
2019-05-22T21:07:16.705Z,94875.44
2019-05-22T21:09:44.877Z,94872.31
2019-05-22T21:12:13.510Z,94875.04
2019-05-22T21:14:43.132Z,94872.59
2019-05-22T21:17:11.380Z,94876.49
2019-05-22T21:19:40.936Z,94867.27
2019-05-22T21:22:09.489Z,94874.00
2019-05-22T21:24:37.378Z,94889.48
2019-05-22T21:27:06.943Z,94885.99
2019-05-22T21:29:35.283Z,94888.52
2019-05-22T21:32:03.555Z,94887.80
2019-05-22T21:34:30.957Z,94879.09
2019-05-22T21:36:58.927Z,94886.83
2019-05-22T21:39:27.123Z,94880.53
2019-05-22T21:41:54.710Z,94886.53
2019-05-22T21:44:22.319Z,94895.83
2019-05-22T21:46:51.310Z,94890.81
2019-05-22T21:49:19.260Z,94901.36
2019-05-22T21:51:46.787Z,94909.14
2019-05-22T21:54:15.794Z,94910.55
2019-05-22T21:56:44.063Z,94904.80
2019-05-22T21:59:11.595Z,94907.45
2019-05-22T22:01:47.784Z,94913.97
2019-05-22T22:04:25.816Z,94908.12
2019-05-22T22:06:54.779Z,94914.64
2019-05-22T22:09:24.173Z,94915.75
2019-05-22T22:11:52.392Z,94922.55
2019-05-22T22:14:21.740Z,94921.61
2019-05-22T22:16:49.910Z,94922.75
2019-05-22T22:19:19.561Z,94907.42
2019-05-22T22:21:48.040Z,94921.86
2019-05-22T22:24:15.816Z,94918.42
2019-05-22T22:26:43.961Z,94917.05
2019-05-22T22:29:12.038Z,94915.83
2019-05-22T22:31:40.411Z,94907.56
2019-05-22T22:34:34.837Z,94901.25
2019-05-22T22:37:03.669Z,94906.09
2019-05-22T22:39:32.015Z,94912.09
2019-05-22T22:42:00.377Z,94910.47
2019-05-22T22:44:30.297Z,94922.73
2019-05-22T22:47:05.174Z,94922.80
2019-05-22T22:49:34.510Z,94922.39
2019-05-22T22:52:05.593Z,94906.33
2019-05-22T22:54:34.080Z,94896.50
2019-05-22T22:57:02.050Z,94912.10
2019-05-22T22:59:29.934Z,94918.95
2019-05-22T23:02:00.002Z,94922.97
2019-05-22T23:04:29.223Z,94922.81
2019-05-22T23:07:05.256Z,94924.58
2019-05-22T23:09:35.072Z,94926.42
2019-05-22T23:12:03.856Z,94924.64
2019-05-22T23:14:33.273Z,94919.79
2019-05-22T23:17:00.899Z,94915.14
2019-05-22T23:19:44.033Z,94908.45
2019-05-22T23:22:15.622Z,94908.89
2019-05-22T23:24:45.536Z,94902.00
2019-05-22T23:27:15.313Z,94906.52
2019-05-22T23:29:44.712Z,94907.80
2019-05-22T23:32:14.985Z,94902.50
2019-05-22T23:34:44.205Z,94896.38
2019-05-22T23:37:12.542Z,94898.40
2019-05-22T23:39:40.708Z,94887.56
2019-05-22T23:42:13.722Z,94900.60
2019-05-22T23:44:42.112Z,94886.33
2019-05-22T23:47:10.491Z,94884.97
2019-05-22T23:49:38.905Z,94877.20
2019-05-22T23:52:07.140Z,94887.30
2019-05-22T23:54:36.749Z,94893.40
2019-05-22T23:57:05.441Z,94899.92
2019-05-22T23:59:35.544Z,94902.94
